KBFLKLAS

Guest
Details From KBFL - MEADOWS FLD
To KLAS - Mc Carran Intl
Flight Number -
Tags generated
Created
Modified
Stats Distance 215 nm / 398 km
Max Altitude 0 ft / 0 m
Waypoints 4
Social Downloads 1
Likes 0
Share VATSIM

Download

Looking for another format? Having issues loading an existing format? Contact us
Advertisement - Login to hide

Notes

None

Route

KBFL FURNY J110 SHADO KLAS

ID Type Via Altitude Latitude Longitude Leg Dist Tot Dist Heading (true) Name
O KBFL APT - 0 ft / 0 m 35.43349˚ -119.05751˚ - 0 nm - MEADOWS FLD
FURNY FIX - 0 ft / 0 m 36.49013˚ -117.46168˚ 100 nm 100 nm 50° / 51° -
SHADO FIX J110 (AWY-HI) 0 ft / 0 m 36.26374˚ -116.23077˚ 61 nm 161 nm 103° / 103° -
O KLAS APT - 0 ft / 0 m 36.08097˚ -115.15345˚ 53 nm 214 nm 102° / 102° Mc Carran Intl

Altitude Profile

Advertisement - Login to hide

Weather


0- 5 10 15 20 25 30 35+ Temperature / ° C

Clouds and Precipitation
Forecast for 2018-05-22 00:00 UTC. Updated 4 hours ago

Ground ~20,000 ft ~40,000 ft Winds

KBFL

Details ICAO KBFL (BFL)
Name MEADOWS FLD
Region United States
Timezone America/Los_Angeles (UTC-7.0)
Stats Elevation 507 ft / 155 m (AMSL)
Location 35.433486° -119.057509°
Runways 2
Magnetic Variation 12.391° E

METAR

KBFL 220254Z 30005KT 10SM CLR 24/07 A2979 RMK AO2 SLP082 T02440067 53004

Decode

TAF

TAF KBFL 212320Z 2200/2224 33008KT P6SM SKC= TAF KHVR 212320Z 2200/2224 VRB05KT P6SM VCTS SCT060CB BKN150 FM220700 VRB04KT P6SM VCSH SCT070 BKN110 FM221900 VRB05KT P6SM FEW060 SCT120

Decode

Departure Runways

ID Width Length Bearing (true) Bearing (mag) Surface Threshold Offset Overrun Length
12L 151 ft / 46 m 10,865 ft / 3,312 m 135.44° 123.05° Asphalt 0 ft / 0 m 200 ft / 61 m
12R 98 ft / 30 m 7,710 ft / 2,350 m 135.45° 123.06° Asphalt 0 ft / 0 m 0 ft / 0 m
30L 98 ft / 30 m 7,710 ft / 2,350 m 315.46° 303.07° Asphalt 3,383 ft / 1,031 m 0 ft / 0 m
30R 151 ft / 46 m 10,865 ft / 3,312 m 315.46° 303.07° Asphalt 3,428 ft / 1,045 m 801 ft / 244 m

KLAS

Details ICAO KLAS (LAS)
Name Mc Carran Intl
Region United States
Timezone America/Los_Angeles (UTC-7.0)
Stats Elevation 2,141 ft / 653 m (AMSL)
Location 36.080975° -115.153446°
Runways 4
Magnetic Variation 11.614° E

METAR

KLAS 220256Z 31008KT 10SM FEW100 FEW150 BKN200 26/01 A2972 RMK AO2 SLP043 VCSH T02610011 53011

Decode

TAF

KLAS 220249Z 2203/2306 32010KT P6SM SCT100 BKN150 FM220800 21005KT P6SM FEW100 BKN150 FM221400 VRB05KT P6SM FEW100 SCT150 FM222000 18009G16KT P6SM SCT090 SCT150

Decode

Destination Runways

ID Width Length Bearing (true) Bearing (mag) Surface Threshold Offset Overrun Length
01L 151 ft / 46 m 9,783 ft / 2,982 m 24.85° 13.24° Concrete 584 ft / 178 m 410 ft / 125 m
01R 151 ft / 46 m 9,791 ft / 2,984 m 24.84° 13.23° Concrete 492 ft / 150 m 394 ft / 120 m
07L 151 ft / 46 m 14,833 ft / 4,521 m 89.89° 78.28° Asphalt 2,477 ft / 755 m 374 ft / 114 m
07R 151 ft / 46 m 10,503 ft / 3,201 m 89.92° 78.31° Asphalt 0 ft / 0 m 390 ft / 119 m
19L 151 ft / 46 m 9,791 ft / 2,984 m 204.84° 193.23° Concrete 879 ft / 268 m 410 ft / 125 m
19R 151 ft / 46 m 9,783 ft / 2,982 m 204.86° 193.25° Concrete 771 ft / 235 m 410 ft / 125 m
25L 151 ft / 46 m 10,503 ft / 3,201 m 269.94° 258.33° Asphalt 0 ft / 0 m 410 ft / 125 m
25R 151 ft / 46 m 14,833 ft / 4,521 m 269.92° 258.31° Asphalt 1,398 ft / 426 m 623 ft / 190 m

Approach Navaids

Runway Type Ident Frequency Range Bearing (true) Bearing (mag) Slope Elevation
01L Localiser ICUA 110.10 MHz 18 nm / 33 km 24.83° 13.21° - 2,079 ft / 634 m (AMSL)
01L Glidescope ICUA 110.10 MHz 10 nm / 19 km 24.85° 13.24° 3.40° 2,159 ft / 658 m (AMSL)
01L DME ICUA 110.10 MHz 18 nm / 33 km - - - 2,092 ft / 638 m (AMSL)
25L Localiser IRLE 111.75 MHz 18 nm / 33 km 269.93° 258.32° - 2,141 ft / 653 m (AMSL)
25L Glidescope IRLE 111.75 MHz 10 nm / 19 km 269.93° 258.32° 3.00° 2,054 ft / 626 m (AMSL)
25R Localiser ILAS 110.30 MHz 45 nm / 83 km 269.93° 258.31° - 2,187 ft / 667 m (AMSL)
25R Glidescope ILAS 110.30 MHz 10 nm / 19 km 269.91° 258.29° 3.00° 2,046 ft / 624 m (AMSL)
25R DME ILAS 110.30 MHz 18 nm / 33 km - - - 2,203 ft / 671 m (AMSL)

Popular Alternatives